sensor_id;sensor_type;location;lat;lon;timestamp;P1;durP1;ratioP1;P2;durP2;ratioP2
3280;SDS011;1652;51.318;6.202;2023-05-29T00:02:15;5.60;;;4.50;;
3280;SDS011;1652;51.318;6.202;2023-05-29T00:04:42;9.60;;;4.70;;
3280;SDS011;1652;51.318;6.202;2023-05-29T00:07:09;7.33;;;4.10;;
3280;SDS011;1652;51.318;6.202;2023-05-29T00:09:36;4.63;;;3.67;;
3280;SDS011;1652;51.318;6.202;2023-05-29T00:12:03;9.20;;;4.00;;
3280;SDS011;1652;51.318;6.202;2023-05-29T00:14:32;9.43;;;3.83;;
3280;SDS011;1652;51.318;6.202;2023-05-29T00:16:59;5.73;;;4.13;;
3280;SDS011;1652;51.318;6.202;2023-05-29T00:19:25;5.73;;;5.07;;
3280;SDS011;1652;51.318;6.202;2023-05-29T00:21:53;5.03;;;4.10;;
3280;SDS011;1652;51.318;6.202;2023-05-29T00:24:20;7.03;;;4.80;;
3280;SDS011;1652;51.318;6.202;2023-05-29T00:26:47;5.57;;;5.07;;
3280;SDS011;1652;51.318;6.202;2023-05-29T00:29:14;5.57;;;4.87;;
3280;SDS011;1652;51.318;6.202;2023-05-29T00:31:41;6.67;;;4.37;;
3280;SDS011;1652;51.318;6.202;2023-05-29T00:34:08;6.57;;;5.27;;
3280;SDS011;1652;51.318;6.202;2023-05-29T00:36:35;10.30;;;5.70;;
3280;SDS011;1652;51.318;6.202;2023-05-29T00:39:03;14.63;;;5.10;;
3280;SDS011;1652;51.318;6.202;2023-05-29T00:41:29;5.73;;;5.23;;
3280;SDS011;1652;51.318;6.202;2023-05-29T00:43:56;12.67;;;5.43;;
3280;SDS011;1652;51.318;6.202;2023-05-29T00:46:23;10.63;;;6.03;;
3280;SDS011;1652;51.318;6.202;2023-05-29T00:48:50;11.00;;;6.77;;
3280;SDS011;1652;51.318;6.202;2023-05-29T00:51:17;6.40;;;6.00;;
3280;SDS011;1652;51.318;6.202;2023-05-29T00:53:45;9.00;;;6.00;;
3280;SDS011;1652;51.318;6.202;2023-05-29T00:56:12;6.83;;;6.10;;
3280;SDS011;1652;51.318;6.202;2023-05-29T00:58:39;9.43;;;6.70;;
3280;SDS011;1652;51.318;6.202;2023-05-29T01:01:07;9.97;;;7.40;;
3280;SDS011;1652;51.318;6.202;2023-05-29T01:03:34;12.93;;;7.13;;
3280;SDS011;1652;51.318;6.202;2023-05-29T01:06:02;8.90;;;7.07;;
3280;SDS011;1652;51.318;6.202;2023-05-29T01:08:29;10.80;;;6.70;;
3280;SDS011;1652;51.318;6.202;2023-05-29T01:11:00;12.23;;;6.60;;
3280;SDS011;1652;51.318;6.202;2023-05-29T01:13:38;10.67;;;7.20;;
3280;SDS011;1652;51.318;6.202;2023-05-29T01:16:21;16.10;;;8.50;;
3280;SDS011;1652;51.318;6.202;2023-05-29T01:19:04;11.07;;;7.30;;
3280;SDS011;1652;51.318;6.202;2023-05-29T01:24:49;10.03;;;7.20;;
3280;SDS011;1652;51.318;6.202;2023-05-29T01:27:19;18.17;;;6.97;;
3280;SDS011;1652;51.318;6.202;2023-05-29T01:29:51;8.07;;;6.10;;
3280;SDS011;1652;51.318;6.202;2023-05-29T01:32:21;12.23;;;6.80;;
3280;SDS011;1652;51.318;6.202;2023-05-29T01:34:49;10.53;;;7.50;;
3280;SDS011;1652;51.318;6.202;2023-05-29T01:37:16;11.50;;;7.40;;
3280;SDS011;1652;51.318;6.202;2023-05-29T01:39:43;20.83;;;7.20;;
3280;SDS011;1652;51.318;6.202;2023-05-29T01:42:10;15.03;;;7.10;;
3280;SDS011;1652;51.318;6.202;2023-05-29T01:44:38;13.03;;;8.13;;
3280;SDS011;1652;51.318;6.202;2023-05-29T01:47:05;16.33;;;6.33;;
3280;SDS011;1652;51.318;6.202;2023-05-29T01:49:32;14.77;;;6.60;;
3280;SDS011;1652;51.318;6.202;2023-05-29T01:52:00;10.80;;;6.20;;
3280;SDS011;1652;51.318;6.202;2023-05-29T01:54:28;13.40;;;6.50;;
3280;SDS011;1652;51.318;6.202;2023-05-29T01:56:54;14.40;;;6.43;;
3280;SDS011;1652;51.318;6.202;2023-05-29T01:59:22;11.00;;;5.10;;
3280;SDS011;1652;51.318;6.202;2023-05-29T02:01:49;10.43;;;4.77;;
3280;SDS011;1652;51.318;6.202;2023-05-29T02:04:16;14.87;;;5.03;;
3280;SDS011;1652;51.318;6.202;2023-05-29T02:06:43;13.40;;;5.10;;
3280;SDS011;1652;51.318;6.202;2023-05-29T02:09:10;7.10;;;4.27;;
3280;SDS011;1652;51.318;6.202;2023-05-29T02:11:37;16.00;;;4.30;;
3280;SDS011;1652;51.318;6.202;2023-05-29T02:14:04;12.30;;;4.00;;
3280;SDS011;1652;51.318;6.202;2023-05-29T02:16:31;12.77;;;4.40;;
3280;SDS011;1652;51.318;6.202;2023-05-29T02:19:01;10.30;;;4.83;;
3280;SDS011;1652;51.318;6.202;2023-05-29T02:21:28;7.23;;;3.23;;
3280;SDS011;1652;51.318;6.202;2023-05-29T02:23:55;12.23;;;4.97;;
3280;SDS011;1652;51.318;6.202;2023-05-29T02:26:22;5.03;;;3.60;;
3280;SDS011;1652;51.318;6.202;2023-05-29T02:28:49;10.50;;;3.50;;
3280;SDS011;1652;51.318;6.202;2023-05-29T02:31:16;7.47;;;3.43;;
3280;SDS011;1652;51.318;6.202;2023-05-29T02:33:43;17.97;;;4.47;;
3280;SDS011;1652;51.318;6.202;2023-05-29T02:36:10;11.97;;;3.97;;
3280;SDS011;1652;51.318;6.202;2023-05-29T02:38:38;7.83;;;3.27;;
3280;SDS011;1652;51.318;6.202;2023-05-29T02:41:05;13.27;;;3.90;;
3280;SDS011;1652;51.318;6.202;2023-05-29T02:43:32;4.30;;;2.80;;
3280;SDS011;1652;51.318;6.202;2023-05-29T02:45:59;9.47;;;3.43;;
3280;SDS011;1652;51.318;6.202;2023-05-29T02:48:26;17.70;;;5.03;;
3280;SDS011;1652;51.318;6.202;2023-05-29T02:50:53;22.50;;;5.30;;
3280;SDS011;1652;51.318;6.202;2023-05-29T02:53:20;13.63;;;3.90;;
3280;SDS011;1652;51.318;6.202;2023-05-29T02:55:48;7.20;;;3.37;;
3280;SDS011;1652;51.318;6.202;2023-05-29T02:58:15;6.70;;;3.13;;
3280;SDS011;1652;51.318;6.202;2023-05-29T03:00:42;8.63;;;3.80;;
3280;SDS011;1652;51.318;6.202;2023-05-29T03:03:09;11.47;;;3.60;;
3280;SDS011;1652;51.318;6.202;2023-05-29T03:05:39;5.00;;;3.27;;
3280;SDS011;1652;51.318;6.202;2023-05-29T03:08:07;12.53;;;3.50;;
3280;SDS011;1652;51.318;6.202;2023-05-29T03:10:33;6.30;;;3.20;;
3280;SDS011;1652;51.318;6.202;2023-05-29T03:13:00;8.20;;;3.57;;
3280;SDS011;1652;51.318;6.202;2023-05-29T03:15:27;13.30;;;4.30;;
3280;SDS011;1652;51.318;6.202;2023-05-29T03:17:54;10.23;;;2.93;;
3280;SDS011;1652;51.318;6.202;2023-05-29T03:20:21;15.03;;;3.37;;
3280;SDS011;1652;51.318;6.202;2023-05-29T03:22:48;7.50;;;2.47;;
3280;SDS011;1652;51.318;6.202;2023-05-29T03:25:15;8.23;;;2.80;;
3280;SDS011;1652;51.318;6.202;2023-05-29T03:27:42;20.43;;;3.30;;
3280;SDS011;1652;51.318;6.202;2023-05-29T03:30:09;16.00;;;3.90;;
3280;SDS011;1652;51.318;6.202;2023-05-29T03:32:37;7.70;;;2.93;;
3280;SDS011;1652;51.318;6.202;2023-05-29T03:35:04;8.67;;;3.50;;
3280;SDS011;1652;51.318;6.202;2023-05-29T03:37:31;13.33;;;4.60;;
3280;SDS011;1652;51.318;6.202;2023-05-29T03:39:58;7.80;;;2.90;;
3280;SDS011;1652;51.318;6.202;2023-05-29T03:42:25;11.43;;;3.20;;
3280;SDS011;1652;51.318;6.202;2023-05-29T03:44:52;17.27;;;3.77;;
3280;SDS011;1652;51.318;6.202;2023-05-29T03:47:19;16.03;;;4.10;;
3280;SDS011;1652;51.318;6.202;2023-05-29T03:49:47;19.03;;;3.40;;
3280;SDS011;1652;51.318;6.202;2023-05-29T03:52:14;12.17;;;3.20;;
3280;SDS011;1652;51.318;6.202;2023-05-29T03:54:41;10.47;;;2.90;;
3280;SDS011;1652;51.318;6.202;2023-05-29T03:57:08;7.37;;;3.30;;
3280;SDS011;1652;51.318;6.202;2023-05-29T03:59:35;5.50;;;2.67;;
3280;SDS011;1652;51.318;6.202;2023-05-29T04:02:03;11.67;;;3.40;;
3280;SDS011;1652;51.318;6.202;2023-05-29T04:04:30;13.70;;;3.00;;
3280;SDS011;1652;51.318;6.202;2023-05-29T04:06:57;10.47;;;2.93;;
3280;SDS011;1652;51.318;6.202;2023-05-29T04:09:24;17.07;;;4.20;;
3280;SDS011;1652;51.318;6.202;2023-05-29T04:11:51;18.30;;;3.70;;
3280;SDS011;1652;51.318;6.202;2023-05-29T04:14:18;11.47;;;2.97;;
3280;SDS011;1652;51.318;6.202;2023-05-29T04:16:45;8.03;;;3.23;;
3280;SDS011;1652;51.318;6.202;2023-05-29T04:19:12;12.10;;;3.37;;
3280;SDS011;1652;51.318;6.202;2023-05-29T04:21:39;10.83;;;2.97;;
3280;SDS011;1652;51.318;6.202;2023-05-29T04:24:06;15.00;;;3.33;;
3280;SDS011;1652;51.318;6.202;2023-05-29T04:26:33;11.30;;;2.70;;
3280;SDS011;1652;51.318;6.202;2023-05-29T04:29:00;17.20;;;3.67;;
3280;SDS011;1652;51.318;6.202;2023-05-29T04:31:28;11.00;;;3.20;;
3280;SDS011;1652;51.318;6.202;2023-05-29T04:33:55;18.83;;;3.33;;
3280;SDS011;1652;51.318;6.202;2023-05-29T04:36:23;14.80;;;2.87;;
3280;SDS011;1652;51.318;6.202;2023-05-29T04:38:54;3.60;;;2.00;;
3280;SDS011;1652;51.318;6.202;2023-05-29T04:41:21;8.60;;;2.80;;
3280;SDS011;1652;51.318;6.202;2023-05-29T04:43:50;10.57;;;2.70;;
3280;SDS011;1652;51.318;6.202;2023-05-29T04:46:22;9.00;;;3.83;;
3280;SDS011;1652;51.318;6.202;2023-05-29T04:48:53;14.50;;;4.33;;
3280;SDS011;1652;51.318;6.202;2023-05-29T04:51:20;11.10;;;4.20;;
3280;SDS011;1652;51.318;6.202;2023-05-29T04:53:47;10.70;;;2.90;;
3280;SDS011;1652;51.318;6.202;2023-05-29T04:56:17;14.80;;;3.60;;
3280;SDS011;1652;51.318;6.202;2023-05-29T04:58:45;23.33;;;3.60;;
3280;SDS011;1652;51.318;6.202;2023-05-29T05:01:14;14.20;;;3.37;;
3280;SDS011;1652;51.318;6.202;2023-05-29T05:03:41;14.10;;;2.67;;
3280;SDS011;1652;51.318;6.202;2023-05-29T05:06:09;13.03;;;3.60;;
3280;SDS011;1652;51.318;6.202;2023-05-29T05:08:36;12.33;;;4.00;;
3280;SDS011;1652;51.318;6.202;2023-05-29T05:11:03;13.63;;;3.27;;
3280;SDS011;1652;51.318;6.202;2023-05-29T05:13:33;26.23;;;3.60;;
3280;SDS011;1652;51.318;6.202;2023-05-29T05:16:00;12.63;;;2.50;;
3280;SDS011;1652;51.318;6.202;2023-05-29T05:18:27;12.50;;;3.07;;
3280;SDS011;1652;51.318;6.202;2023-05-29T05:20:54;12.17;;;2.80;;
3280;SDS011;1652;51.318;6.202;2023-05-29T05:23:22;15.30;;;3.43;;
3280;SDS011;1652;51.318;6.202;2023-05-29T05:25:49;7.47;;;2.20;;
3280;SDS011;1652;51.318;6.202;2023-05-29T05:28:16;7.70;;;2.47;;
3280;SDS011;1652;51.318;6.202;2023-05-29T05:30:43;15.40;;;3.30;;
3280;SDS011;1652;51.318;6.202;2023-05-29T05:33:09;5.30;;;2.50;;
3280;SDS011;1652;51.318;6.202;2023-05-29T05:35:36;11.40;;;3.17;;
3280;SDS011;1652;51.318;6.202;2023-05-29T05:38:04;8.90;;;3.00;;
3280;SDS011;1652;51.318;6.202;2023-05-29T05:40:31;16.80;;;3.57;;
3280;SDS011;1652;51.318;6.202;2023-05-29T05:42:58;13.43;;;3.77;;
3280;SDS011;1652;51.318;6.202;2023-05-29T05:45:25;8.37;;;2.50;;
3280;SDS011;1652;51.318;6.202;2023-05-29T05:47:52;15.83;;;2.63;;
3280;SDS011;1652;51.318;6.202;2023-05-29T05:50:19;13.00;;;3.43;;
3280;SDS011;1652;51.318;6.202;2023-05-29T05:52:47;14.40;;;3.43;;
3280;SDS011;1652;51.318;6.202;2023-05-29T05:55:14;10.20;;;2.70;;
3280;SDS011;1652;51.318;6.202;2023-05-29T05:57:41;10.77;;;3.40;;
3280;SDS011;1652;51.318;6.202;2023-05-29T06:00:08;9.20;;;2.57;;
3280;SDS011;1652;51.318;6.202;2023-05-29T06:02:39;10.33;;;3.00;;
3280;SDS011;1652;51.318;6.202;2023-05-29T06:05:11;12.63;;;2.60;;
3280;SDS011;1652;51.318;6.202;2023-05-29T06:07:38;19.57;;;4.27;;
3280;SDS011;1652;51.318;6.202;2023-05-29T06:10:05;15.60;;;3.27;;
3280;SDS011;1652;51.318;6.202;2023-05-29T06:12:33;11.20;;;3.20;;
3280;SDS011;1652;51.318;6.202;2023-05-29T06:15:00;11.90;;;2.63;;
3280;SDS011;1652;51.318;6.202;2023-05-29T06:17:29;16.73;;;3.37;;
3280;SDS011;1652;51.318;6.202;2023-05-29T06:19:58;14.37;;;2.90;;
3280;SDS011;1652;51.318;6.202;2023-05-29T06:22:26;8.87;;;2.80;;
3280;SDS011;1652;51.318;6.202;2023-05-29T06:24:53;15.83;;;2.93;;
3280;SDS011;1652;51.318;6.202;2023-05-29T06:27:20;8.73;;;2.67;;
3280;SDS011;1652;51.318;6.202;2023-05-29T06:29:49;8.53;;;2.93;;
3280;SDS011;1652;51.318;6.202;2023-05-29T06:32:16;13.10;;;3.03;;
3280;SDS011;1652;51.318;6.202;2023-05-29T06:34:43;9.33;;;2.60;;
3280;SDS011;1652;51.318;6.202;2023-05-29T06:37:10;14.67;;;3.50;;
3280;SDS011;1652;51.318;6.202;2023-05-29T06:39:37;13.93;;;3.47;;
3280;SDS011;1652;51.318;6.202;2023-05-29T06:42:05;10.60;;;3.07;;
3280;SDS011;1652;51.318;6.202;2023-05-29T06:44:32;8.37;;;3.17;;
3280;SDS011;1652;51.318;6.202;2023-05-29T06:46:59;10.53;;;3.07;;
3280;SDS011;1652;51.318;6.202;2023-05-29T06:49:26;10.07;;;2.40;;
3280;SDS011;1652;51.318;6.202;2023-05-29T06:51:53;6.40;;;3.37;;
3280;SDS011;1652;51.318;6.202;2023-05-29T06:54:20;20.63;;;3.30;;
3280;SDS011;1652;51.318;6.202;2023-05-29T06:56:47;9.30;;;3.60;;
3280;SDS011;1652;51.318;6.202;2023-05-29T06:59:33;8.67;;;2.60;;
3280;SDS011;1652;51.318;6.202;2023-05-29T07:02:01;9.50;;;2.80;;
3280;SDS011;1652;51.318;6.202;2023-05-29T07:04:28;10.80;;;3.90;;
3280;SDS011;1652;51.318;6.202;2023-05-29T07:06:55;13.30;;;6.23;;
3280;SDS011;1652;51.318;6.202;2023-05-29T07:09:21;9.27;;;3.20;;
3280;SDS011;1652;51.318;6.202;2023-05-29T07:11:48;23.07;;;3.83;;
3280;SDS011;1652;51.318;6.202;2023-05-29T07:14:15;15.23;;;3.90;;
3280;SDS011;1652;51.318;6.202;2023-05-29T07:16:42;19.63;;;5.07;;
3280;SDS011;1652;51.318;6.202;2023-05-29T07:19:09;14.47;;;3.90;;
3280;SDS011;1652;51.318;6.202;2023-05-29T07:21:47;7.83;;;2.90;;
3280;SDS011;1652;51.318;6.202;2023-05-29T07:24:14;4.27;;;2.53;;
3280;SDS011;1652;51.318;6.202;2023-05-29T07:26:41;8.10;;;2.80;;
3280;SDS011;1652;51.318;6.202;2023-05-29T07:29:09;11.67;;;3.27;;
3280;SDS011;1652;51.318;6.202;2023-05-29T07:31:36;8.50;;;3.20;;
3280;SDS011;1652;51.318;6.202;2023-05-29T07:34:03;13.60;;;3.77;;
3280;SDS011;1652;51.318;6.202;2023-05-29T07:36:30;3.93;;;2.17;;
3280;SDS011;1652;51.318;6.202;2023-05-29T07:39:00;6.63;;;3.17;;
3280;SDS011;1652;51.318;6.202;2023-05-29T07:41:27;10.27;;;3.70;;
3280;SDS011;1652;51.318;6.202;2023-05-29T07:43:54;7.33;;;2.60;;
3280;SDS011;1652;51.318;6.202;2023-05-29T07:46:22;7.87;;;2.77;;
3280;SDS011;1652;51.318;6.202;2023-05-29T07:48:49;11.20;;;3.07;;
3280;SDS011;1652;51.318;6.202;2023-05-29T07:51:16;18.70;;;5.23;;
3280;SDS011;1652;51.318;6.202;2023-05-29T07:53:44;6.67;;;3.60;;
3280;SDS011;1652;51.318;6.202;2023-05-29T07:56:12;8.53;;;2.67;;
3280;SDS011;1652;51.318;6.202;2023-05-29T07:58:40;13.63;;;3.30;;
3280;SDS011;1652;51.318;6.202;2023-05-29T08:01:07;10.47;;;3.07;;
3280;SDS011;1652;51.318;6.202;2023-05-29T08:03:34;12.30;;;4.20;;
3280;SDS011;1652;51.318;6.202;2023-05-29T08:06:01;11.47;;;3.03;;
3280;SDS011;1652;51.318;6.202;2023-05-29T08:08:29;12.00;;;3.10;;
3280;SDS011;1652;51.318;6.202;2023-05-29T08:10:56;9.80;;;3.23;;
3280;SDS011;1652;51.318;6.202;2023-05-29T08:13:23;13.33;;;3.47;;
3280;SDS011;1652;51.318;6.202;2023-05-29T08:15:50;10.37;;;2.77;;
3280;SDS011;1652;51.318;6.202;2023-05-29T08:18:17;6.20;;;2.70;;
3280;SDS011;1652;51.318;6.202;2023-05-29T08:20:44;12.17;;;3.23;;
3280;SDS011;1652;51.318;6.202;2023-05-29T08:23:11;11.40;;;2.67;;
3280;SDS011;1652;51.318;6.202;2023-05-29T08:25:38;8.13;;;2.63;;
3280;SDS011;1652;51.318;6.202;2023-05-29T08:28:05;7.00;;;3.10;;
3280;SDS011;1652;51.318;6.202;2023-05-29T08:30:32;17.60;;;4.30;;
3280;SDS011;1652;51.318;6.202;2023-05-29T08:32:59;12.07;;;2.83;;
3280;SDS011;1652;51.318;6.202;2023-05-29T08:35:26;10.40;;;2.87;;
3280;SDS011;1652;51.318;6.202;2023-05-29T08:37:53;15.13;;;3.07;;
3280;SDS011;1652;51.318;6.202;2023-05-29T08:40:20;8.60;;;2.90;;
3280;SDS011;1652;51.318;6.202;2023-05-29T08:42:56;19.50;;;3.77;;
3280;SDS011;1652;51.318;6.202;2023-05-29T08:45:26;18.13;;;3.20;;
3280;SDS011;1652;51.318;6.202;2023-05-29T08:47:54;7.83;;;2.80;;
3280;SDS011;1652;51.318;6.202;2023-05-29T08:50:26;13.63;;;2.67;;
3280;SDS011;1652;51.318;6.202;2023-05-29T08:52:53;14.57;;;3.07;;
3280;SDS011;1652;51.318;6.202;2023-05-29T08:55:22;12.10;;;3.23;;
3280;SDS011;1652;51.318;6.202;2023-05-29T08:57:49;11.17;;;3.23;;
3280;SDS011;1652;51.318;6.202;2023-05-29T09:00:16;10.53;;;3.53;;
3280;SDS011;1652;51.318;6.202;2023-05-29T09:02:46;11.40;;;3.50;;
3280;SDS011;1652;51.318;6.202;2023-05-29T09:05:13;9.80;;;3.80;;
3280;SDS011;1652;51.318;6.202;2023-05-29T09:07:40;12.13;;;3.37;;
3280;SDS011;1652;51.318;6.202;2023-05-29T09:10:10;9.47;;;2.70;;
3280;SDS011;1652;51.318;6.202;2023-05-29T09:12:38;10.23;;;3.03;;
3280;SDS011;1652;51.318;6.202;2023-05-29T09:15:24;12.00;;;2.70;;
3280;SDS011;1652;51.318;6.202;2023-05-29T09:17:51;8.00;;;3.30;;
3280;SDS011;1652;51.318;6.202;2023-05-29T09:20:20;13.73;;;3.30;;
3280;SDS011;1652;51.318;6.202;2023-05-29T09:22:54;4.37;;;2.33;;
3280;SDS011;1652;51.318;6.202;2023-05-29T09:25:40;13.57;;;3.93;;
3280;SDS011;1652;51.318;6.202;2023-05-29T09:28:10;8.50;;;3.20;;
3280;SDS011;1652;51.318;6.202;2023-05-29T09:30:38;5.70;;;2.57;;
3280;SDS011;1652;51.318;6.202;2023-05-29T09:33:07;9.90;;;2.57;;
3280;SDS011;1652;51.318;6.202;2023-05-29T09:35:41;4.63;;;2.10;;
3280;SDS011;1652;51.318;6.202;2023-05-29T09:38:10;6.53;;;2.70;;
3280;SDS011;1652;51.318;6.202;2023-05-29T09:40:58;6.27;;;2.97;;
3280;SDS011;1652;51.318;6.202;2023-05-29T09:43:31;9.20;;;3.40;;
3280;SDS011;1652;51.318;6.202;2023-05-29T09:46:00;10.67;;;3.87;;
3280;SDS011;1652;51.318;6.202;2023-05-29T09:48:29;12.07;;;3.80;;
3280;SDS011;1652;51.318;6.202;2023-05-29T09:50:57;13.90;;;2.70;;
3280;SDS011;1652;51.318;6.202;2023-05-29T09:53:25;6.30;;;2.57;;
3280;SDS011;1652;51.318;6.202;2023-05-29T09:55:55;15.73;;;3.40;;
3280;SDS011;1652;51.318;6.202;2023-05-29T09:58:26;9.10;;;2.50;;
3280;SDS011;1652;51.318;6.202;2023-05-29T10:00:53;8.77;;;2.87;;
3280;SDS011;1652;51.318;6.202;2023-05-29T10:03:20;9.50;;;3.03;;
3280;SDS011;1652;51.318;6.202;2023-05-29T10:05:52;7.30;;;2.90;;
3280;SDS011;1652;51.318;6.202;2023-05-29T10:08:24;12.17;;;3.07;;
3280;SDS011;1652;51.318;6.202;2023-05-29T10:11:00;9.60;;;2.50;;
3280;SDS011;1652;51.318;6.202;2023-05-29T10:13:39;12.70;;;3.43;;
3280;SDS011;1652;51.318;6.202;2023-05-29T10:16:10;6.60;;;2.20;;
3280;SDS011;1652;51.318;6.202;2023-05-29T10:18:44;11.43;;;3.10;;
3280;SDS011;1652;51.318;6.202;2023-05-29T10:21:21;6.27;;;2.53;;
3280;SDS011;1652;51.318;6.202;2023-05-29T10:23:48;5.27;;;2.17;;
3280;SDS011;1652;51.318;6.202;2023-05-29T10:26:26;6.77;;;3.27;;
3280;SDS011;1652;51.318;6.202;2023-05-29T10:28:56;7.43;;;2.60;;
3280;SDS011;1652;51.318;6.202;2023-05-29T10:37:37;11.17;;;2.53;;
3280;SDS011;1652;51.318;6.202;2023-05-29T10:40:10;10.57;;;2.30;;
3280;SDS011;1652;51.318;6.202;2023-05-29T10:50:42;8.90;;;2.63;;
3280;SDS011;1652;51.318;6.202;2023-05-29T10:53:14;7.10;;;2.40;;
3280;SDS011;1652;51.318;6.202;2023-05-29T10:55:44;9.93;;;2.70;;
3280;SDS011;1652;51.318;6.202;2023-05-29T10:58:13;7.60;;;2.90;;
3280;SDS011;1652;51.318;6.202;2023-05-29T11:00:50;6.33;;;3.43;;
3280;SDS011;1652;51.318;6.202;2023-05-29T11:03:23;8.37;;;2.20;;
3280;SDS011;1652;51.318;6.202;2023-05-29T11:05:56;5.60;;;2.30;;
3280;SDS011;1652;51.318;6.202;2023-05-29T11:08:55;7.67;;;2.30;;
3280;SDS011;1652;51.318;6.202;2023-05-29T11:11:30;5.47;;;2.37;;
3280;SDS011;1652;51.318;6.202;2023-05-29T11:19:03;7.80;;;3.70;;
3280;SDS011;1652;51.318;6.202;2023-05-29T11:24:25;7.30;;;3.10;;
3280;SDS011;1652;51.318;6.202;2023-05-29T11:26:55;7.90;;;1.90;;
3280;SDS011;1652;51.318;6.202;2023-05-29T11:29:24;9.63;;;2.43;;
3280;SDS011;1652;51.318;6.202;2023-05-29T11:32:03;5.20;;;2.70;;
3280;SDS011;1652;51.318;6.202;2023-05-29T11:34:32;10.50;;;3.20;;
3280;SDS011;1652;51.318;6.202;2023-05-29T11:37:02;6.03;;;2.50;;
3280;SDS011;1652;51.318;6.202;2023-05-29T11:39:29;9.50;;;2.43;;
3280;SDS011;1652;51.318;6.202;2023-05-29T11:41:59;9.70;;;2.70;;
3280;SDS011;1652;51.318;6.202;2023-05-29T11:44:27;8.50;;;2.67;;
3280;SDS011;1652;51.318;6.202;2023-05-29T11:47:00;9.40;;;2.50;;
3280;SDS011;1652;51.318;6.202;2023-05-29T11:49:32;5.73;;;2.33;;
3280;SDS011;1652;51.318;6.202;2023-05-29T11:52:10;6.43;;;2.50;;
3280;SDS011;1652;51.318;6.202;2023-05-29T11:54:43;11.73;;;5.63;;
3280;SDS011;1652;51.318;6.202;2023-05-29T11:57:18;7.53;;;2.20;;
3280;SDS011;1652;51.318;6.202;2023-05-29T11:59:46;12.43;;;2.53;;
3280;SDS011;1652;51.318;6.202;2023-05-29T12:02:14;4.57;;;2.33;;
3280;SDS011;1652;51.318;6.202;2023-05-29T12:04:41;6.13;;;2.00;;
3280;SDS011;1652;51.318;6.202;2023-05-29T12:07:17;7.20;;;2.60;;
3280;SDS011;1652;51.318;6.202;2023-05-29T12:09:45;8.10;;;2.40;;
3280;SDS011;1652;51.318;6.202;2023-05-29T12:12:14;5.50;;;1.70;;
3280;SDS011;1652;51.318;6.202;2023-05-29T12:14:41;9.20;;;2.63;;
3280;SDS011;1652;51.318;6.202;2023-05-29T12:17:07;3.63;;;2.57;;
3280;SDS011;1652;51.318;6.202;2023-05-29T12:19:35;6.90;;;2.70;;
3280;SDS011;1652;51.318;6.202;2023-05-29T12:22:02;12.77;;;3.17;;
3280;SDS011;1652;51.318;6.202;2023-05-29T12:24:29;6.83;;;2.40;;
3280;SDS011;1652;51.318;6.202;2023-05-29T12:27:07;6.63;;;3.40;;
3280;SDS011;1652;51.318;6.202;2023-05-29T12:29:35;8.93;;;2.50;;
3280;SDS011;1652;51.318;6.202;2023-05-29T12:32:02;13.27;;;3.70;;
3280;SDS011;1652;51.318;6.202;2023-05-29T12:34:35;5.13;;;2.93;;
3280;SDS011;1652;51.318;6.202;2023-05-29T12:37:07;10.87;;;2.90;;
3280;SDS011;1652;51.318;6.202;2023-05-29T12:39:38;9.47;;;2.70;;
3280;SDS011;1652;51.318;6.202;2023-05-29T12:42:06;4.97;;;2.50;;
3280;SDS011;1652;51.318;6.202;2023-05-29T12:44:33;7.23;;;2.53;;
3280;SDS011;1652;51.318;6.202;2023-05-29T12:47:00;11.03;;;2.47;;
3280;SDS011;1652;51.318;6.202;2023-05-29T12:49:27;11.37;;;2.50;;
3280;SDS011;1652;51.318;6.202;2023-05-29T12:51:55;5.23;;;2.37;;
3280;SDS011;1652;51.318;6.202;2023-05-29T12:54:34;4.13;;;2.00;;
3280;SDS011;1652;51.318;6.202;2023-05-29T12:57:01;6.13;;;3.07;;
3280;SDS011;1652;51.318;6.202;2023-05-29T12:59:28;3.37;;;2.20;;
3280;SDS011;1652;51.318;6.202;2023-05-29T13:01:55;12.23;;;2.90;;
3280;SDS011;1652;51.318;6.202;2023-05-29T13:04:22;10.93;;;3.00;;
3280;SDS011;1652;51.318;6.202;2023-05-29T13:06:49;8.90;;;2.90;;
3280;SDS011;1652;51.318;6.202;2023-05-29T13:09:16;9.33;;;2.67;;
3280;SDS011;1652;51.318;6.202;2023-05-29T13:11:43;5.87;;;3.13;;
3280;SDS011;1652;51.318;6.202;2023-05-29T13:14:10;6.10;;;2.47;;
3280;SDS011;1652;51.318;6.202;2023-05-29T13:16:37;4.60;;;2.17;;
3280;SDS011;1652;51.318;6.202;2023-05-29T13:19:04;5.47;;;2.63;;
3280;SDS011;1652;51.318;6.202;2023-05-29T13:21:32;5.60;;;2.83;;
3280;SDS011;1652;51.318;6.202;2023-05-29T13:23:58;5.37;;;2.27;;
3280;SDS011;1652;51.318;6.202;2023-05-29T13:26:25;5.37;;;2.73;;
3280;SDS011;1652;51.318;6.202;2023-05-29T13:28:53;12.37;;;2.70;;
3280;SDS011;1652;51.318;6.202;2023-05-29T13:31:20;4.40;;;2.43;;
3280;SDS011;1652;51.318;6.202;2023-05-29T13:33:47;14.63;;;2.17;;
3280;SDS011;1652;51.318;6.202;2023-05-29T13:36:14;4.93;;;2.10;;
3280;SDS011;1652;51.318;6.202;2023-05-29T13:38:41;11.83;;;2.70;;
3280;SDS011;1652;51.318;6.202;2023-05-29T13:41:10;10.83;;;2.17;;
3280;SDS011;1652;51.318;6.202;2023-05-29T13:43:37;11.07;;;2.60;;
3280;SDS011;1652;51.318;6.202;2023-05-29T13:46:10;2.77;;;2.37;;
3280;SDS011;1652;51.318;6.202;2023-05-29T13:48:38;6.53;;;1.90;;
3280;SDS011;1652;51.318;6.202;2023-05-29T13:51:05;3.70;;;2.33;;
3280;SDS011;1652;51.318;6.202;2023-05-29T13:53:32;11.33;;;2.50;;
3280;SDS011;1652;51.318;6.202;2023-05-29T13:55:59;3.57;;;2.37;;
3280;SDS011;1652;51.318;6.202;2023-05-29T13:58:40;7.00;;;2.57;;
3280;SDS011;1652;51.318;6.202;2023-05-29T14:01:07;12.10;;;3.53;;
3280;SDS011;1652;51.318;6.202;2023-05-29T14:03:34;13.73;;;3.20;;
3280;SDS011;1652;51.318;6.202;2023-05-29T14:06:01;7.90;;;2.27;;
3280;SDS011;1652;51.318;6.202;2023-05-29T14:08:31;8.87;;;2.93;;
3280;SDS011;1652;51.318;6.202;2023-05-29T14:10:58;6.30;;;2.90;;
3280;SDS011;1652;51.318;6.202;2023-05-29T14:13:25;6.23;;;2.97;;
3280;SDS011;1652;51.318;6.202;2023-05-29T14:15:52;5.47;;;2.40;;
3280;SDS011;1652;51.318;6.202;2023-05-29T14:18:21;4.60;;;2.80;;
3280;SDS011;1652;51.318;6.202;2023-05-29T14:20:48;5.93;;;2.37;;
3280;SDS011;1652;51.318;6.202;2023-05-29T14:23:16;8.50;;;1.87;;
3280;SDS011;1652;51.318;6.202;2023-05-29T14:25:43;9.67;;;2.47;;
3280;SDS011;1652;51.318;6.202;2023-05-29T14:28:11;3.60;;;1.60;;
3280;SDS011;1652;51.318;6.202;2023-05-29T14:30:38;5.33;;;2.17;;
3280;SDS011;1652;51.318;6.202;2023-05-29T14:33:05;11.10;;;2.67;;
3280;SDS011;1652;51.318;6.202;2023-05-29T14:35:32;8.20;;;2.60;;
3280;SDS011;1652;51.318;6.202;2023-05-29T14:37:59;8.67;;;2.80;;
3280;SDS011;1652;51.318;6.202;2023-05-29T14:40:26;2.83;;;1.90;;
3280;SDS011;1652;51.318;6.202;2023-05-29T14:42:53;10.07;;;3.00;;
3280;SDS011;1652;51.318;6.202;2023-05-29T14:45:20;9.97;;;2.73;;
3280;SDS011;1652;51.318;6.202;2023-05-29T14:47:47;6.50;;;2.83;;
3280;SDS011;1652;51.318;6.202;2023-05-29T14:50:14;7.20;;;2.87;;
3280;SDS011;1652;51.318;6.202;2023-05-29T14:52:41;15.87;;;2.60;;
3280;SDS011;1652;51.318;6.202;2023-05-29T14:55:08;6.17;;;2.70;;
3280;SDS011;1652;51.318;6.202;2023-05-29T14:57:35;12.00;;;3.00;;
3280;SDS011;1652;51.318;6.202;2023-05-29T15:00:03;13.23;;;3.53;;
3280;SDS011;1652;51.318;6.202;2023-05-29T15:02:32;3.63;;;2.30;;
3280;SDS011;1652;51.318;6.202;2023-05-29T15:04:59;4.70;;;2.63;;
3280;SDS011;1652;51.318;6.202;2023-05-29T15:07:26;6.80;;;2.07;;
3280;SDS011;1652;51.318;6.202;2023-05-29T15:09:53;14.17;;;2.90;;
3280;SDS011;1652;51.318;6.202;2023-05-29T15:12:20;10.80;;;2.40;;
3280;SDS011;1652;51.318;6.202;2023-05-29T15:14:47;11.00;;;3.07;;
3280;SDS011;1652;51.318;6.202;2023-05-29T15:17:16;7.23;;;3.30;;
3280;SDS011;1652;51.318;6.202;2023-05-29T15:19:44;7.10;;;2.20;;
3280;SDS011;1652;51.318;6.202;2023-05-29T15:22:11;10.10;;;2.80;;
3280;SDS011;1652;51.318;6.202;2023-05-29T15:24:38;8.27;;;2.77;;
3280;SDS011;1652;51.318;6.202;2023-05-29T15:27:04;4.30;;;2.80;;
3280;SDS011;1652;51.318;6.202;2023-05-29T15:29:34;9.53;;;2.40;;
3280;SDS011;1652;51.318;6.202;2023-05-29T15:32:01;10.23;;;3.40;;
3280;SDS011;1652;51.318;6.202;2023-05-29T15:34:29;5.30;;;2.77;;
3280;SDS011;1652;51.318;6.202;2023-05-29T15:36:56;6.33;;;3.17;;
3280;SDS011;1652;51.318;6.202;2023-05-29T15:39:23;7.60;;;3.30;;
3280;SDS011;1652;51.318;6.202;2023-05-29T15:41:52;9.47;;;2.87;;